Time;durP1;ratioP1;P1;durP2;ratioP2;P2;SDS_P1;SDS_P2;PMS_P1;PMS_P2;Temp;Humidity;BMP_temperature;BMP_pressure;BME280_temperature;BME280_humidity;BME280_pressure;Samples;Min_cycle;Max_cycle;Signal;HPM_P1;HPM_P2
2021/12/31 00:01:14;;;;;;;2.85;1.67;;;16.90;75.70;;;;;;5034134;28;20488;-79
2021/12/31 00:03:41;;;;;;;4.88;1.50;;;16.90;75.60;;;;;;5042076;28;20148;-78
2021/12/31 00:06:08;;;;;;;5.35;1.92;;;17.00;75.50;;;;;;5035223;28;20045;-79
2021/12/31 00:08:35;;;;;;;2.22;1.40;;;16.90;75.40;;;;;;5017701;28;20051;-79
2021/12/31 00:11:02;;;;;;;1.95;1.27;;;16.90;75.40;;;;;;5032492;28;20515;-79
2021/12/31 00:13:29;;;;;;;4.93;1.67;;;16.90;75.20;;;;;;4999862;28;20046;-79
2021/12/31 00:15:57;;;;;;;8.38;2.38;;;17.00;75.30;;;;;;5024100;28;20041;-78
2021/12/31 00:18:24;;;;;;;2.33;1.58;;;16.90;75.00;;;;;;5017501;28;20061;-78
2021/12/31 00:20:50;;;;;;;2.20;1.33;;;17.00;75.20;;;;;;5033811;28;20047;-78
2021/12/31 00:23:23;;;;;;;3.53;1.80;;;16.90;75.10;;;;;;5002477;28;20539;-78
2021/12/31 00:25:50;;;;;;;;;;;17.00;75.00;;;;;;5023639;28;20055;-79
2021/12/31 00:28:17;;;;;;;3.53;1.30;;;17.00;74.90;;;;;;5032572;28;20034;-78
2021/12/31 00:30:45;;;;;;;2.75;1.83;;;17.00;74.90;;;;;;5031795;28;20053;-78
2021/12/31 00:33:11;;;;;;;3.65;1.48;;;17.00;74.70;;;;;;4990229;28;20136;-78
2021/12/31 00:35:39;;;;;;;5.82;1.90;;;17.00;74.70;;;;;;5007445;28;20046;-78
2021/12/31 00:38:07;;;;;;;3.63;1.42;;;17.00;74.70;;;;;;5017027;28;20041;-78
2021/12/31 00:40:35;;;;;;;2.50;1.73;;;17.00;74.50;;;;;;5015882;28;20045;-78
2021/12/31 00:43:03;;;;;;;1.63;0.90;;;17.00;74.50;;;;;;5040865;28;20060;-78
2021/12/31 00:45:30;;;;;;;3.05;2.05;;;17.00;74.30;;;;;;5013005;28;20511;-79
2021/12/31 00:47:58;;;;;;;5.07;1.50;;;17.00;74.40;;;;;;5021311;28;20052;-79
2021/12/31 00:50:24;;;;;;;3.55;1.20;;;17.00;74.30;;;;;;5034565;28;20059;-78
2021/12/31 00:52:51;;;;;;;2.90;1.25;;;16.90;74.20;;;;;;5006005;28;20049;-78
2021/12/31 00:55:18;;;;;;;3.42;1.67;;;16.90;74.20;;;;;;5012667;28;20045;-78
2021/12/31 00:57:45;;;;;;;2.30;1.02;;;16.90;74.00;;;;;;5034149;28;20048;-77
2021/12/31 01:00:15;;;;;;;7.00;1.48;;;16.90;73.90;;;;;;5023440;28;20064;-77
2021/12/31 01:02:43;;;;;;;2.33;1.15;;;16.90;73.70;;;;;;5032620;28;20530;-78
2021/12/31 01:05:11;;;;;;;4.47;1.30;;;16.90;73.80;;;;;;5026875;28;20041;-78
2021/12/31 01:07:40;;;;;;;4.25;1.60;;;16.90;73.60;;;;;;5023374;28;20041;-78
2021/12/31 01:10:12;;;;;;;2.30;1.55;;;16.90;73.50;;;;;;5022396;28;20056;-78
2021/12/31 01:12:39;;;;;;;2.42;1.40;;;16.90;73.50;;;;;;5027973;28;20071;-78
2021/12/31 01:15:11;;;;;;;3.55;1.65;;;16.90;73.60;;;;;;5010445;28;20144;-78
2021/12/31 01:18:27;;;;;;;3.13;1.55;;;16.90;73.50;;;;;;4992536;28;20050;-79
2021/12/31 01:20:28;;;;;;;2.75;1.30;;;16.90;73.50;;;;;;5011967;28;20048;-78
2021/12/31 01:22:55;;;;;;;6.65;1.70;;;16.90;73.40;;;;;;5016218;28;20049;-78
2021/12/31 01:25:22;;;;;;;3.03;1.83;;;16.90;73.30;;;;;;4968341;28;1072827;-78
2021/12/31 01:27:50;;;;;;;3.33;1.80;;;16.90;73.50;;;;;;4998657;28;20053;-78
2021/12/31 01:30:17;;;;;;;4.25;1.30;;;16.90;73.30;;;;;;5010504;28;20404;-78
2021/12/31 01:32:49;;;;;;;3.42;2.08;;;16.90;73.30;;;;;;5032854;28;20056;-78
2021/12/31 01:35:17;;;;;;;2.92;1.40;;;16.90;73.20;;;;;;5018334;28;20045;-79
2021/12/31 01:37:43;;;;;;;3.33;1.40;;;16.90;73.20;;;;;;4996049;28;20056;-79
2021/12/31 01:40:11;;;;;;;2.53;1.33;;;16.90;73.20;;;;;;5046083;28;20048;-78
2021/12/31 01:42:38;;;;;;;8.50;1.75;;;16.90;73.20;;;;;;5032695;28;20051;-79
2021/12/31 01:45:13;;;;;;;5.85;1.58;;;16.90;73.20;;;;;;5016855;28;20049;-79
2021/12/31 01:50:29;;;;;;;4.20;1.30;;;16.90;73.10;;;;;;5016648;28;20045;-79
2021/12/31 01:52:57;;;;;;;4.25;1.38;;;16.90;72.90;;;;;;5032802;28;20064;-79
2021/12/31 01:55:28;;;;;;;2.50;1.77;;;17.00;72.90;;;;;;5051434;28;20063;-78
2021/12/31 01:57:56;;;;;;;4.10;1.70;;;16.90;72.90;;;;;;5021094;28;20041;-78
2021/12/31 02:00:23;;;;;;;3.17;1.45;;;16.90;72.80;;;;;;5022665;28;20045;-78
2021/12/31 02:02:52;;;;;;;2.78;1.40;;;16.90;72.90;;;;;;5021770;28;20238;-79
2021/12/31 02:05:21;;;;;;;2.95;1.20;;;16.90;72.90;;;;;;5026363;28;20496;-78
2021/12/31 02:07:48;;;;;;;3.20;2.05;;;16.90;72.90;;;;;;5024195;28;20052;-79
2021/12/31 02:10:15;;;;;;;3.63;1.23;;;16.90;72.80;;;;;;5015357;28;20045;-78
2021/12/31 02:12:46;;;;;;;2.05;1.40;;;16.90;72.80;;;;;;5019974;28;20053;-78
2021/12/31 02:15:14;;;;;;;4.60;1.45;;;16.90;72.70;;;;;;5022431;28;20750;-78
2021/12/31 02:17:44;;;;;;;3.60;1.10;;;16.90;72.70;;;;;;5033715;28;20063;-78
2021/12/31 02:20:11;;;;;;;2.90;1.20;;;16.90;72.80;;;;;;5020751;28;20163;-79
2021/12/31 02:22:40;;;;;;;3.00;1.33;;;16.90;72.70;;;;;;5049770;28;20096;-78
2021/12/31 02:25:07;;;;;;;2.88;1.05;;;16.90;72.70;;;;;;5021102;28;20045;-79
2021/12/31 02:27:39;;;;;;;2.05;1.67;;;16.90;72.60;;;;;;5029768;28;20049;-78
2021/12/31 02:30:09;;;;;;;3.15;1.70;;;16.90;72.40;;;;;;5036286;28;20041;-78
2021/12/31 02:32:36;;;;;;;3.42;1.27;;;16.90;72.50;;;;;;5036641;28;20049;-78
2021/12/31 02:35:05;;;;;;;1.30;1.20;;;17.00;72.70;;;;;;4986146;28;20056;-79
2021/12/31 02:37:32;;;;;;;2.17;1.20;;;16.90;72.50;;;;;;5030657;28;20064;-78
2021/12/31 02:40:03;;;;;;;3.20;1.75;;;16.90;72.50;;;;;;5051970;28;20048;-79
2021/12/31 02:42:30;;;;;;;3.17;1.25;;;16.90;72.40;;;;;;5032267;28;20063;-79
2021/12/31 02:44:57;;;;;;;3.83;1.05;;;16.90;72.50;;;;;;5019596;28;20046;-78
2021/12/31 02:47:24;;;;;;;2.88;1.30;;;16.90;72.50;;;;;;5026399;28;20053;-78
2021/12/31 02:49:50;;;;;;;2.70;1.30;;;16.90;72.50;;;;;;5033650;28;20048;-78
2021/12/31 02:52:18;;;;;;;2.45;1.10;;;16.90;72.50;;;;;;5031455;28;20045;-77
2021/12/31 02:54:47;;;;;;;1.30;1.10;;;16.90;72.50;;;;;;5024644;28;20070;-78
2021/12/31 02:57:15;;;;;;;1.98;1.10;;;17.00;72.40;;;;;;5032848;28;20048;-78
2021/12/31 02:59:44;;;;;;;3.88;1.67;;;16.90;72.40;;;;;;5008625;28;20034;-78
2021/12/31 03:02:12;;;;;;;2.60;1.00;;;16.90;72.40;;;;;;5005282;28;20489;-78
2021/12/31 03:04:39;;;;;;;3.15;1.20;;;16.90;72.40;;;;;;5017799;28;20042;-78
2021/12/31 03:07:09;;;;;;;2.08;1.05;;;16.90;72.30;;;;;;5050545;28;20045;-78
2021/12/31 03:09:38;;;;;;;2.08;1.38;;;16.90;72.30;;;;;;5027468;28;20053;-78
2021/12/31 03:12:08;;;;;;;2.92;1.20;;;16.90;72.30;;;;;;4997808;28;20045;-78
2021/12/31 03:14:37;;;;;;;4.95;1.33;;;16.90;72.30;;;;;;5011419;28;20045;-78
2021/12/31 03:17:05;;;;;;;3.78;1.58;;;16.90;72.20;;;;;;4992417;28;20049;-78
2021/12/31 03:19:32;;;;;;;3.50;1.58;;;16.90;72.20;;;;;;4993119;28;20046;-78
2021/12/31 03:21:59;;;;;;;1.77;1.08;;;16.90;72.30;;;;;;5000750;28;20090;-78
2021/12/31 03:24:26;;;;;;;2.78;1.20;;;16.90;72.30;;;;;;5017856;28;20072;-77
2021/12/31 03:26:53;;;;;;;8.40;1.92;;;16.90;72.40;;;;;;5015372;28;20045;-78
2021/12/31 03:29:21;;;;;;;2.58;1.20;;;16.90;72.40;;;;;;5007743;28;20049;-78
2021/12/31 03:31:48;;;;;;;6.85;2.35;;;16.90;72.30;;;;;;5019226;28;20049;-79
2021/12/31 03:34:14;;;;;;;2.78;1.60;;;16.90;72.40;;;;;;5011537;28;20056;-78
2021/12/31 03:36:42;;;;;;;3.58;1.58;;;16.90;72.30;;;;;;5000435;28;20046;-78
2021/12/31 03:39:10;;;;;;;4.70;1.30;;;16.90;72.30;;;;;;5011879;28;20107;-79
2021/12/31 03:41:38;;;;;;;2.58;1.42;;;16.80;72.20;;;;;;5031508;28;20045;-78
2021/12/31 03:44:06;;;;;;;2.05;1.17;;;16.80;72.10;;;;;;5051760;28;20098;-78
2021/12/31 03:46:33;;;;;;;5.25;1.52;;;16.80;72.10;;;;;;5016653;28;20062;-78
2021/12/31 03:49:00;;;;;;;1.25;0.98;;;16.80;72.20;;;;;;5044879;28;20056;-78
2021/12/31 03:51:27;;;;;;;1.70;1.17;;;16.80;72.00;;;;;;5024713;28;20037;-79
2021/12/31 03:53:54;;;;;;;2.38;1.00;;;16.70;72.00;;;;;;5016974;28;20167;-79
2021/12/31 03:56:22;;;;;;;2.28;1.10;;;16.70;72.00;;;;;;5030708;28;20056;-79
2021/12/31 03:58:49;;;;;;;3.00;1.30;;;16.60;72.10;;;;;;4994641;28;20153;-79
2021/12/31 04:01:16;;;;;;;2.30;1.15;;;16.60;72.70;;;;;;5006509;28;20071;-79
2021/12/31 04:03:43;;;;;;;2.20;1.13;;;16.60;72.20;;;;;;5032463;28;20047;-79
2021/12/31 04:06:10;;;;;;;4.18;1.15;;;16.50;72.30;;;;;;5009872;28;20044;-78
2021/12/31 04:08:37;;;;;;;4.82;1.83;;;16.50;72.40;;;;;;5030362;28;20037;-78
2021/12/31 04:11:05;;;;;;;2.33;1.30;;;16.60;72.70;;;;;;5016679;28;20055;-78
2021/12/31 04:13:31;;;;;;;1.77;1.35;;;16.40;73.20;;;;;;5025671;28;20387;-79
2021/12/31 04:15:58;;;;;;;2.10;0.93;;;16.40;72.70;;;;;;5007371;28;20052;-79
2021/12/31 04:18:26;;;;;;;2.35;1.55;;;16.40;72.60;;;;;;5013199;28;20068;-79
2021/12/31 04:20:56;;;;;;;1.50;1.10;;;16.40;72.70;;;;;;5023651;28;20044;-78
2021/12/31 04:23:29;;;;;;;3.00;1.40;;;16.40;72.60;;;;;;5032402;28;20044;-79
2021/12/31 04:25:56;;;;;;;;;;;16.30;72.50;;;;;;5032641;28;20033;-79
2021/12/31 04:28:24;;;;;;;3.90;1.70;;;16.30;72.50;;;;;;5008748;28;20326;-79
2021/12/31 04:30:51;;;;;;;1.75;1.15;;;16.40;72.60;;;;;;5020643;28;20044;-78
2021/12/31 04:33:18;;;;;;;2.88;1.45;;;16.30;72.50;;;;;;5031005;28;20087;-78
2021/12/31 04:35:45;;;;;;;6.45;3.38;;;16.30;72.60;;;;;;5016512;28;20049;-79
2021/12/31 04:38:12;;;;;;;3.80;1.45;;;16.30;72.60;;;;;;5023134;28;20045;-78
2021/12/31 04:40:40;;;;;;;1.23;1.13;;;16.30;72.60;;;;;;5013391;28;20048;-78
2021/12/31 04:43:06;;;;;;;3.63;1.63;;;16.30;73.40;;;;;;5014357;28;20590;-78
2021/12/31 04:45:33;;;;;;;3.63;1.48;;;16.30;72.80;;;;;;5018534;28;20060;-77
2021/12/31 04:48:02;;;;;;;3.58;1.33;;;16.20;72.80;;;;;;5042141;28;20041;-78
2021/12/31 04:50:29;;;;;;;2.90;1.48;;;16.20;72.80;;;;;;5026400;28;20034;-78
2021/12/31 04:52:56;;;;;;;2.55;1.35;;;16.20;73.00;;;;;;5014215;28;20058;-78
2021/12/31 04:55:23;;;;;;;3.13;1.50;;;16.20;73.10;;;;;;5016660;28;20045;-78
2021/12/31 04:57:50;;;;;;;2.83;1.20;;;16.20;73.00;;;;;;5045496;28;20044;-78
2021/12/31 05:00:17;;;;;;;2.35;1.02;;;16.20;73.00;;;;;;5019700;28;20057;-78
2021/12/31 05:02:44;;;;;;;4.15;1.17;;;16.30;73.10;;;;;;5015542;28;20160;-77
2021/12/31 05:05:11;;;;;;;2.97;1.50;;;16.30;73.20;;;;;;5016980;28;20037;-77
2021/12/31 05:07:38;;;;;;;2.75;1.10;;;16.30;73.20;;;;;;5046593;28;20060;-78
2021/12/31 05:10:07;;;;;;;3.75;1.63;;;16.30;73.70;;;;;;5007224;28;20611;-78
2021/12/31 05:12:36;;;;;;;2.75;1.15;;;16.30;73.10;;;;;;5006031;28;20450;-78
2021/12/31 05:15:07;;;;;;;3.15;1.50;;;16.40;73.10;;;;;;5005158;28;20045;-78
2021/12/31 05:17:35;;;;;;;2.25;1.70;;;16.40;73.00;;;;;;5022592;28;20051;-78
2021/12/31 05:20:03;;;;;;;3.15;1.30;;;16.40;72.90;;;;;;5048599;28;20041;-79
2021/12/31 05:22:30;;;;;;;3.83;1.60;;;16.40;72.80;;;;;;5036620;28;20041;-78
2021/12/31 05:24:57;;;;;;;1.45;1.27;;;16.40;72.70;;;;;;5026276;28;20045;-79
2021/12/31 05:27:24;;;;;;;2.88;1.38;;;16.40;72.70;;;;;;5029276;28;20635;-78
2021/12/31 05:29:51;;;;;;;3.47;1.33;;;16.40;72.70;;;;;;5048027;28;20045;-79
2021/12/31 05:32:18;;;;;;;2.70;1.30;;;16.40;72.60;;;;;;5034522;28;20042;-78
2021/12/31 05:34:44;;;;;;;5.20;1.75;;;16.40;72.60;;;;;;5017839;28;20049;-78
2021/12/31 05:37:11;;;;;;;1.80;1.40;;;16.40;72.40;;;;;;5033806;28;20424;-79
2021/12/31 05:39:38;;;;;;;3.28;1.38;;;16.40;72.40;;;;;;5048661;28;20052;-79
2021/12/31 05:42:06;;;;;;;3.92;1.65;;;16.40;72.40;;;;;;5012799;28;20041;-78
2021/12/31 05:44:32;;;;;;;1.65;1.30;;;16.40;72.40;;;;;;4993536;28;20073;-78
2021/12/31 05:46:59;;;;;;;3.45;1.33;;;16.40;72.20;;;;;;5045354;28;20087;-77
2021/12/31 05:49:28;;;;;;;2.47;1.38;;;16.40;72.70;;;;;;5031598;28;20041;-77
2021/12/31 05:51:55;;;;;;;2.63;1.20;;;16.30;72.20;;;;;;5023193;28;20092;-78
2021/12/31 05:54:22;;;;;;;2.72;1.60;;;16.30;72.20;;;;;;5047975;28;20103;-78
2021/12/31 05:56:51;;;;;;;2.88;1.48;;;16.30;72.20;;;;;;5028170;28;20080;-78
2021/12/31 05:59:18;;;;;;;3.28;1.90;;;16.30;72.10;;;;;;5030626;28;20056;-77
2021/12/31 06:01:46;;;;;;;2.17;1.58;;;16.30;72.10;;;;;;5031230;28;20547;-79
2021/12/31 06:04:14;;;;;;;2.17;1.35;;;16.20;72.00;;;;;;5046693;28;20037;-77
2021/12/31 06:06:42;;;;;;;3.70;1.85;;;16.20;72.00;;;;;;5015921;28;20652;-79
2021/12/31 06:09:09;;;;;;;2.33;1.60;;;16.20;72.00;;;;;;5010520;28;20057;-78
2021/12/31 06:11:36;;;;;;;2.50;1.50;;;16.10;71.90;;;;;;5013083;28;20041;-77
2021/12/31 06:14:04;;;;;;;1.38;1.25;;;16.10;72.00;;;;;;5029866;28;20497;-78
2021/12/31 06:16:42;;;;;;;2.40;1.30;;;16.10;72.10;;;;;;5029590;28;20045;-78
2021/12/31 06:19:10;;;;;;;4.38;1.52;;;16.00;72.10;;;;;;5026596;28;20649;-78
2021/12/31 06:21:39;;;;;;;2.47;1.83;;;16.00;72.10;;;;;;5009733;28;20573;-79
2021/12/31 06:24:07;;;;;;;1.67;1.50;;;15.90;72.10;;;;;;5029579;28;20063;-78
2021/12/31 06:26:35;;;;;;;3.08;1.60;;;15.90;72.30;;;;;;5047713;28;20481;-80
2021/12/31 06:29:03;;;;;;;2.97;1.52;;;15.90;72.30;;;;;;4990963;28;20041;-79
2021/12/31 06:31:30;;;;;;;3.92;1.98;;;15.80;72.20;;;;;;5024442;28;20577;-79
2021/12/31 06:33:57;;;;;;;4.63;2.00;;;15.80;72.30;;;;;;5047065;28;20689;-79
2021/12/31 06:36:24;;;;;;;2.33;1.70;;;15.80;72.40;;;;;;5028402;28;20052;-80
2021/12/31 06:38:51;;;;;;;2.58;1.58;;;15.70;72.40;;;;;;4998825;28;20137;-76
2021/12/31 06:41:20;;;;;;;2.53;1.73;;;15.70;72.60;;;;;;5015333;28;20124;-78
2021/12/31 06:43:47;;;;;;;4.40;1.63;;;15.60;72.70;;;;;;5029801;28;20501;-78
2021/12/31 06:46:14;;;;;;;2.03;1.90;;;15.60;72.70;;;;;;5032066;28;20500;-78
2021/12/31 06:48:41;;;;;;;4.05;1.60;;;15.60;72.80;;;;;;5028643;28;20087;-79
2021/12/31 06:51:09;;;;;;;3.13;1.70;;;15.50;72.80;;;;;;5028530;28;20037;-78
2021/12/31 06:53:36;;;;;;;4.82;2.17;;;15.50;72.90;;;;;;5051166;28;20477;-78
2021/12/31 06:56:03;;;;;;;2.45;1.75;;;15.60;73.00;;;;;;5020140;28;20040;-77
2021/12/31 06:58:30;;;;;;;2.08;1.80;;;15.40;73.00;;;;;;5025712;28;20064;-79
2021/12/31 07:00:57;;;;;;;2.33;1.60;;;15.50;73.20;;;;;;5017733;28;20093;-77
2021/12/31 07:03:24;;;;;;;1.92;1.70;;;15.40;73.20;;;;;;4997186;28;20049;-80
2021/12/31 07:05:51;;;;;;;1.75;1.48;;;15.40;73.30;;;;;;5014079;28;20038;-76
2021/12/31 07:08:23;;;;;;;2.35;2.08;;;15.40;73.40;;;;;;5024926;28;20528;-76
2021/12/31 07:10:50;;;;;;;2.55;1.60;;;15.30;73.30;;;;;;5015801;28;20041;-76
2021/12/31 07:13:16;;;;;;;2.90;1.50;;;15.30;73.40;;;;;;5011212;28;20041;-78
2021/12/31 07:15:48;;;;;;;2.00;1.60;;;15.30;73.50;;;;;;5006354;28;20398;-78
2021/12/31 07:18:16;;;;;;;2.80;1.53;;;15.30;73.50;;;;;;5025475;28;20052;-79
2021/12/31 07:20:43;;;;;;;2.50;1.65;;;15.30;73.60;;;;;;5049427;28;20047;-76
2021/12/31 07:23:12;;;;;;;2.53;1.23;;;15.20;73.50;;;;;;5028190;28;20045;-77
2021/12/31 07:25:40;;;;;;;1.98;1.63;;;15.30;73.60;;;;;;5010442;28;20414;-78
2021/12/31 07:28:09;;;;;;;4.72;1.77;;;15.20;73.60;;;;;;5011284;28;20037;-76
2021/12/31 07:30:36;;;;;;;2.13;1.65;;;15.20;73.60;;;;;;5011724;28;20056;-76
2021/12/31 07:33:03;;;;;;;2.33;1.85;;;15.20;73.60;;;;;;5049273;28;20040;-76
2021/12/31 07:35:31;;;;;;;1.77;1.30;;;15.20;73.60;;;;;;5042646;28;20056;-78
2021/12/31 07:37:59;;;;;;;3.13;1.70;;;15.20;73.60;;;;;;5004839;28;20042;-77
2021/12/31 07:40:38;;;;;;;3.38;1.40;;;15.20;73.60;;;;;;5030824;28;20057;-77
2021/12/31 07:43:06;;;;;;;1.85;1.33;;;15.20;73.60;;;;;;5047578;28;20052;-77
2021/12/31 07:45:34;;;;;;;2.75;1.63;;;15.20;73.60;;;;;;5009232;28;20052;-76
2021/12/31 07:48:01;;;;;;;2.95;1.52;;;15.20;73.50;;;;;;5015131;28;20041;-77
2021/12/31 07:50:29;;;;;;;2.28;1.40;;;15.20;73.50;;;;;;5046849;28;20547;-76
2021/12/31 07:52:55;;;;;;;3.30;1.30;;;15.20;73.60;;;;;;4945250;28;20044;-76
2021/12/31 07:55:23;;;;;;;3.05;1.67;;;15.20;73.50;;;;;;4989748;28;20044;-77
2021/12/31 07:57:50;;;;;;;1.98;1.35;;;15.20;73.50;;;;;;4995478;28;20042;-76
2021/12/31 08:00:17;;;;;;;4.05;2.47;;;15.20;73.50;;;;;;5008338;28;20476;-76
2021/12/31 08:02:44;;;;;;;1.65;1.38;;;15.20;73.50;;;;;;5007046;28;20112;-78
2021/12/31 08:05:11;;;;;;;1.85;1.73;;;15.20;73.50;;;;;;5025851;28;20844;-77
2021/12/31 08:07:39;;;;;;;2.22;1.30;;;15.20;73.40;;;;;;4994433;28;20058;-77
2021/12/31 08:10:06;;;;;;;2.90;1.48;;;15.20;73.40;;;;;;4995529;28;20045;-76
2021/12/31 08:12:53;;;;;;;2.63;1.58;;;15.20;73.30;;;;;;4993288;28;20611;-76
2021/12/31 08:15:20;;;;;;;3.60;1.73;;;15.20;73.30;;;;;;4993864;28;20033;-77
2021/12/31 08:17:47;;;;;;;2.10;1.40;;;15.20;73.30;;;;;;4997852;28;20048;-77
2021/12/31 08:20:13;;;;;;;2.83;1.70;;;15.20;73.20;;;;;;4996370;28;20054;-77
2021/12/31 08:22:40;;;;;;;1.65;1.55;;;15.20;73.20;;;;;;4986471;28;20387;-76
2021/12/31 08:25:07;;;;;;;3.88;1.42;;;15.30;73.10;;;;;;5023187;28;20039;-76
2021/12/31 08:27:39;;;;;;;3.83;1.80;;;15.30;73.00;;;;;;5015021;28;20132;-76
2021/12/31 08:30:07;;;;;;;1.60;1.50;;;15.30;72.90;;;;;;5019693;28;20082;-76
2021/12/31 08:32:35;;;;;;;2.97;1.45;;;15.30;72.90;;;;;;4987057;28;20132;-76
2021/12/31 08:35:06;;;;;;;1.90;1.73;;;15.30;72.70;;;;;;5039239;28;20394;-77
2021/12/31 08:37:35;;;;;;;1.63;1.40;;;15.30;72.70;;;;;;4997207;28;20042;-76
2021/12/31 08:40:02;;;;;;;1.50;1.40;;;15.30;72.60;;;;;;5022778;28;20050;-76
2021/12/31 08:42:29;;;;;;;3.00;1.60;;;15.30;72.50;;;;;;4997654;28;20050;-77
2021/12/31 08:44:56;;;;;;;2.65;1.48;;;15.30;72.40;;;;;;5012354;28;20045;-77
2021/12/31 08:47:28;;;;;;;2.88;1.33;;;15.30;72.30;;;;;;4999064;28;20049;-77
2021/12/31 08:49:55;;;;;;;1.77;1.48;;;15.40;72.40;;;;;;5009109;28;20037;-76
2021/12/31 08:52:21;;;;;;;1.92;1.50;;;15.30;72.30;;;;;;4991832;28;20041;-76
2021/12/31 08:54:48;;;;;;;1.90;1.40;;;15.30;72.20;;;;;;5006272;28;20049;-77
2021/12/31 08:57:16;;;;;;;3.83;1.73;;;15.30;72.20;;;;;;4994257;28;20425;-78
2021/12/31 08:59:43;;;;;;;4.80;1.67;;;15.40;72.10;;;;;;5005547;28;20038;-76
2021/12/31 09:02:11;;;;;;;4.18;2.20;;;15.40;72.10;;;;;;5013185;28;20505;-78
2021/12/31 09:04:37;;;;;;;5.10;1.60;;;15.40;72.10;;;;;;5036227;28;20033;-76
2021/12/31 09:07:04;;;;;;;2.05;1.52;;;15.40;72.00;;;;;;5016604;28;20037;-76
2021/12/31 09:09:31;;;;;;;2.22;1.90;;;15.50;72.10;;;;;;5009696;28;20432;-76
2021/12/31 09:11:58;;;;;;;2.53;1.73;;;15.50;72.10;;;;;;5002548;28;20510;-77
2021/12/31 09:14:25;;;;;;;3.20;2.00;;;15.50;72.10;;;;;;5013677;28;20057;-77
2021/12/31 09:16:52;;;;;;;3.70;2.42;;;15.60;72.00;;;;;;5010206;28;20064;-77
2021/12/31 09:19:19;;;;;;;3.78;1.85;;;15.60;71.80;;;;;;5011961;28;20050;-76
2021/12/31 09:21:46;;;;;;;3.10;1.92;;;15.70;71.60;;;;;;5024401;28;20052;-77
2021/12/31 09:24:13;;;;;;;3.70;2.13;;;15.70;71.60;;;;;;5018201;28;20053;-77
2021/12/31 09:26:40;;;;;;;3.05;1.70;;;15.70;71.60;;;;;;4993448;28;20041;-76
2021/12/31 09:29:07;;;;;;;4.05;1.73;;;15.70;71.40;;;;;;5038202;28;20412;-76
2021/12/31 09:31:34;;;;;;;1.65;1.55;;;15.70;71.30;;;;;;5007748;28;20050;-77
2021/12/31 09:34:00;;;;;;;2.75;1.67;;;15.80;71.30;;;;;;5014638;28;20107;-76
2021/12/31 09:36:29;;;;;;;1.98;1.80;;;15.80;71.20;;;;;;4989209;28;20057;-77
2021/12/31 09:38:56;;;;;;;2.33;1.60;;;15.80;71.10;;;;;;5001196;28;20049;-77
2021/12/31 09:41:23;;;;;;;1.48;1.38;;;15.80;71.00;;;;;;5037195;28;20041;-77
2021/12/31 09:43:50;;;;;;;2.03;1.52;;;15.90;70.90;;;;;;4985082;28;20053;-77
2021/12/31 09:46:21;;;;;;;2.25;1.40;;;15.90;70.80;;;;;;5005538;28;20132;-77
2021/12/31 09:48:49;;;;;;;4.00;1.50;;;15.90;70.60;;;;;;5014160;28;20467;-76
2021/12/31 09:51:16;;;;;;;2.35;2.08;;;15.90;70.60;;;;;;5013572;28;20394;-77
2021/12/31 09:53:44;;;;;;;2.33;1.83;;;15.90;70.60;;;;;;5002504;28;20046;-77
2021/12/31 09:56:13;;;;;;;1.30;1.20;;;16.00;70.60;;;;;;5010737;28;20041;-77
2021/12/31 09:58:40;;;;;;;2.10;1.70;;;16.00;70.40;;;;;;5003899;28;20061;-76
2021/12/31 10:01:09;;;;;;;2.97;1.45;;;16.00;70.60;;;;;;5009643;28;20037;-78
2021/12/31 10:03:37;;;;;;;1.90;1.60;;;16.00;70.60;;;;;;5022789;28;20065;-77
2021/12/31 10:06:11;;;;;;;2.50;1.52;;;16.00;70.20;;;;;;5005894;28;20203;-77
2021/12/31 10:08:44;;;;;;;3.33;2.08;;;16.00;69.90;;;;;;5022853;28;20063;-76
2021/12/31 10:11:22;;;;;;;2.25;1.50;;;16.10;70.00;;;;;;5007872;28;20034;-76
2021/12/31 10:13:57;;;;;;;2.00;1.70;;;16.10;70.00;;;;;;5008302;28;20046;-76
2021/12/31 10:16:32;;;;;;;3.22;2.10;;;16.10;69.60;;;;;;4998702;28;20716;-76
2021/12/31 10:19:11;;;;;;;3.28;1.77;;;16.10;69.70;;;;;;5025601;28;20124;-77
2021/12/31 10:21:44;;;;;;;3.08;1.77;;;16.20;69.70;;;;;;5008514;28;20060;-76
2021/12/31 10:24:37;;;;;;;3.30;2.67;;;16.10;69.90;;;;;;5013896;28;20044;-76
2021/12/31 10:27:10;;;;;;;2.67;1.75;;;16.20;69.50;;;;;;5004834;28;20399;-76
2021/12/31 10:29:52;;;;;;;3.10;1.80;;;16.20;69.70;;;;;;4987277;28;20428;-77
2021/12/31 10:32:20;;;;;;;1.95;1.52;;;16.30;69.60;;;;;;5018097;28;20437;-77
2021/12/31 10:34:46;;;;;;;2.25;1.88;;;16.30;69.80;;;;;;5013684;28;20041;-77
2021/12/31 10:37:19;;;;;;;2.05;1.73;;;16.40;69.80;;;;;;5004499;28;20152;-77
2021/12/31 10:39:57;;;;;;;3.08;1.55;;;16.30;69.30;;;;;;4996119;28;20045;-76
2021/12/31 10:42:33;;;;;;;1.90;1.77;;;16.40;69.20;;;;;;5003842;28;20413;-76
2021/12/31 10:45:04;;;;;;;1.85;1.75;;;16.40;68.90;;;;;;5033124;28;20071;-76
2021/12/31 10:47:42;;;;;;;1.55;1.40;;;16.40;69.00;;;;;;5000032;28;20026;-77
2021/12/31 10:50:14;;;;;;;2.67;1.42;;;16.40;68.80;;;;;;4995600;28;20497;-76
2021/12/31 10:52:55;;;;;;;;;;;16.40;68.80;;;;;;4991256;28;20125;-75
2021/12/31 10:55:29;;;;;;;2.55;1.38;;;16.40;69.00;;;;;;5029705;28;19925;-76
2021/12/31 10:58:10;;;;;;;1.55;1.45;;;16.40;69.00;;;;;;5007390;28;20052;-76
2021/12/31 11:00:41;;;;;;;3.45;1.70;;;16.40;68.50;;;;;;5009651;28;20045;-77
2021/12/31 11:03:09;;;;;;;1.60;1.50;;;16.40;68.90;;;;;;5016085;28;20112;-76
2021/12/31 11:05:36;;;;;;;1.98;1.58;;;16.40;68.90;;;;;;5018817;28;20044;-76
2021/12/31 11:08:07;;;;;;;1.65;1.48;;;16.40;69.00;;;;;;5004264;28;20056;-76
2021/12/31 11:10:39;;;;;;;1.85;1.60;;;16.40;69.10;;;;;;4993407;28;20038;-76
2021/12/31 11:13:13;;;;;;;1.60;1.40;;;16.40;69.10;;;;;;5005735;28;20049;-76
2021/12/31 11:15:42;;;;;;;2.15;1.35;;;16.40;68.90;;;;;;5017389;28;20480;-76
2021/12/31 11:18:11;;;;;;;2.53;1.88;;;16.40;69.10;;;;;;5019932;28;20057;-77
2021/12/31 11:20:40;;;;;;;3.05;1.63;;;16.50;69.10;;;;;;5029194;28;20052;-76
2021/12/31 11:23:07;;;;;;;1.77;1.67;;;16.50;69.00;;;;;;5008482;28;20048;-76
2021/12/31 11:26:05;;;;;;;2.67;1.48;;;16.50;68.90;;;;;;5027735;28;20037;-76
2021/12/31 11:28:35;;;;;;;1.55;1.30;;;16.50;68.40;;;;;;4999935;28;20068;-76
2021/12/31 11:31:20;;;;;;;2.28;1.80;;;16.60;68.80;;;;;;5019566;28;20049;-76
2021/12/31 11:33:59;;;;;;;2.20;1.80;;;16.60;68.10;;;;;;5012658;28;20057;-76
2021/12/31 11:36:38;;;;;;;2.35;1.90;;;16.70;68.10;;;;;;4997506;28;20045;-76
2021/12/31 11:39:42;;;;;;;3.65;2.00;;;16.70;68.20;;;;;;4990851;28;20061;-76
2021/12/31 11:42:11;;;;;;;1.75;1.65;;;16.70;67.90;;;;;;5016992;28;20054;-76
2021/12/31 11:45:03;;;;;;;1.50;1.38;;;16.80;68.50;;;;;;5008886;28;20048;-76
2021/12/31 11:47:33;;;;;;;2.60;1.65;;;16.80;67.90;;;;;;4994338;28;20041;-76
2021/12/31 11:50:24;;;;;;;2.08;1.60;;;16.90;68.50;;;;;;5013239;28;20053;-76
2021/12/31 11:53:02;;;;;;;3.17;1.35;;;16.90;68.00;;;;;;4986631;28;20042;-76
2021/12/31 11:55:44;;;;;;;5.97;1.98;;;17.00;67.70;;;;;;5012102;28;20057;-79
2021/12/31 11:58:39;;;;;;;2.03;1.60;;;17.00;67.60;;;;;;5004671;28;20136;-79
2021/12/31 12:01:51;;;;;;;3.20;1.70;;;17.00;67.30;;;;;;5014090;28;20401;-77
2021/12/31 12:04:27;;;;;;;3.13;1.47;;;17.10;67.00;;;;;;5027107;28;20052;-78
2021/12/31 12:07:14;;;;;;;1.90;1.63;;;17.10;67.30;;;;;;4996571;28;20156;-77
2021/12/31 12:09:44;;;;;;;2.28;1.58;;;17.00;67.40;;;;;;5001518;28;20128;-77
2021/12/31 12:12:34;;;;;;;1.85;1.60;;;17.10;67.10;;;;;;4996919;28;20041;-79
2021/12/31 12:15:29;;;;;;;1.52;1.42;;;17.10;66.80;;;;;;5015348;28;20051;-78
2021/12/31 12:17:58;;;;;;;3.00;1.40;;;17.10;66.90;;;;;;4998442;28;20045;-77
2021/12/31 12:20:45;;;;;;;1.63;1.52;;;17.00;67.10;;;;;;4997685;28;20050;-79
2021/12/31 12:23:14;;;;;;;1.67;1.55;;;17.00;66.70;;;;;;4985906;28;20049;-78
2021/12/31 12:25:41;;;;;;;1.60;1.42;;;17.00;67.10;;;;;;5013298;28;20052;-80
2021/12/31 12:28:14;;;;;;;3.13;2.08;;;17.00;67.10;;;;;;5004390;28;20051;-77
2021/12/31 12:30:47;;;;;;;2.20;1.20;;;17.00;67.10;;;;;;5013688;28;20056;-78
2021/12/31 12:33:23;;;;;;;2.55;1.45;;;17.00;67.10;;;;;;4995942;28;20042;-78
2021/12/31 12:35:53;;;;;;;2.55;1.52;;;16.90;66.90;;;;;;5011220;28;20155;-78
2021/12/31 12:38:21;;;;;;;2.83;1.58;;;16.90;67.40;;;;;;5009902;28;20052;-78
2021/12/31 12:40:58;;;;;;;1.88;1.60;;;16.90;67.60;;;;;;4999199;28;20052;-78
2021/12/31 12:43:37;;;;;;;2.30;1.65;;;16.90;67.50;;;;;;4981876;28;20137;-78
2021/12/31 12:46:14;;;;;;;1.90;1.70;;;16.90;67.50;;;;;;5017068;28;20071;-77
2021/12/31 12:48:45;;;;;;;2.13;1.77;;;17.00;67.60;;;;;;5010157;28;20037;-76
2021/12/31 12:51:14;;;;;;;2.53;1.55;;;17.00;67.80;;;;;;5019640;28;20067;-76
2021/12/31 12:53:49;;;;;;;29.10;4.20;;;17.10;67.60;;;;;;5008734;28;20136;-76
2021/12/31 12:56:18;;;;;;;2.80;1.75;;;17.10;67.30;;;;;;5009113;28;20051;-76
2021/12/31 12:58:50;;;;;;;2.00;1.48;;;17.20;67.80;;;;;;5022905;28;20140;-76
2021/12/31 13:01:18;;;;;;;1.73;1.63;;;17.30;67.10;;;;;;5006117;28;20045;-76
2021/12/31 13:03:53;;;;;;;1.48;1.35;;;17.30;67.10;;;;;;5011718;28;20308;-76